sensor_id;sensor_type;location;lat;lon;timestamp;temperature;humidity
831;DHT22;397;50.564;7.272;2023-05-29T00:01:27;15.90;99.90
831;DHT22;397;50.564;7.272;2023-05-29T00:03:54;15.80;99.90
831;DHT22;397;50.564;7.272;2023-05-29T00:06:24;15.80;99.90
831;DHT22;397;50.564;7.272;2023-05-29T00:08:51;15.80;99.90
831;DHT22;397;50.564;7.272;2023-05-29T00:11:18;15.80;99.90
831;DHT22;397;50.564;7.272;2023-05-29T00:13:46;15.80;99.90
831;DHT22;397;50.564;7.272;2023-05-29T00:16:14;15.60;99.90
831;DHT22;397;50.564;7.272;2023-05-29T00:18:41;15.50;99.90
831;DHT22;397;50.564;7.272;2023-05-29T00:21:15;15.50;99.90
831;DHT22;397;50.564;7.272;2023-05-29T00:23:40;15.60;99.90
831;DHT22;397;50.564;7.272;2023-05-29T00:26:08;15.40;99.90
831;DHT22;397;50.564;7.272;2023-05-29T00:28:36;15.40;99.90
831;DHT22;397;50.564;7.272;2023-05-29T00:31:03;15.40;99.90
831;DHT22;397;50.564;7.272;2023-05-29T00:33:31;15.50;99.90
831;DHT22;397;50.564;7.272;2023-05-29T00:35:58;15.50;99.90
831;DHT22;397;50.564;7.272;2023-05-29T00:38:26;15.20;99.90
831;DHT22;397;50.564;7.272;2023-05-29T00:40:53;15.20;99.90
831;DHT22;397;50.564;7.272;2023-05-29T00:43:21;15.30;99.90
831;DHT22;397;50.564;7.272;2023-05-29T00:45:49;15.30;99.90
831;DHT22;397;50.564;7.272;2023-05-29T00:48:17;15.40;99.90
831;DHT22;397;50.564;7.272;2023-05-29T00:50:45;15.20;99.90
831;DHT22;397;50.564;7.272;2023-05-29T00:53:13;15.20;99.90
831;DHT22;397;50.564;7.272;2023-05-29T00:55:41;15.20;99.90
831;DHT22;397;50.564;7.272;2023-05-29T00:58:09;15.10;99.90
831;DHT22;397;50.564;7.272;2023-05-29T01:00:36;15.00;99.90
831;DHT22;397;50.564;7.272;2023-05-29T01:03:06;15.10;99.90
831;DHT22;397;50.564;7.272;2023-05-29T01:05:34;15.10;99.90
831;DHT22;397;50.564;7.272;2023-05-29T01:08:02;15.10;99.90
831;DHT22;397;50.564;7.272;2023-05-29T01:10:30;14.90;99.90
831;DHT22;397;50.564;7.272;2023-05-29T01:13:06;14.90;99.90
831;DHT22;397;50.564;7.272;2023-05-29T01:18:41;14.80;99.90
831;DHT22;397;50.564;7.272;2023-05-29T01:21:22;14.80;99.90
831;DHT22;397;50.564;7.272;2023-05-29T01:23:53;14.70;99.90
831;DHT22;397;50.564;7.272;2023-05-29T01:26:46;14.60;99.90
831;DHT22;397;50.564;7.272;2023-05-29T01:29:17;14.60;99.90
831;DHT22;397;50.564;7.272;2023-05-29T01:31:44;14.40;99.90
831;DHT22;397;50.564;7.272;2023-05-29T01:34:13;14.20;99.90
831;DHT22;397;50.564;7.272;2023-05-29T01:36:40;14.30;99.90
831;DHT22;397;50.564;7.272;2023-05-29T01:39:08;14.30;99.90
831;DHT22;397;50.564;7.272;2023-05-29T01:41:36;14.20;99.90
831;DHT22;397;50.564;7.272;2023-05-29T01:44:06;14.30;99.90
831;DHT22;397;50.564;7.272;2023-05-29T01:46:44;14.10;99.90
831;DHT22;397;50.564;7.272;2023-05-29T01:49:08;14.00;99.90
831;DHT22;397;50.564;7.272;2023-05-29T01:51:36;13.90;99.90
831;DHT22;397;50.564;7.272;2023-05-29T01:54:04;14.00;99.90
831;DHT22;397;50.564;7.272;2023-05-29T01:56:32;14.00;99.90
831;DHT22;397;50.564;7.272;2023-05-29T01:59:02;13.80;99.90
831;DHT22;397;50.564;7.272;2023-05-29T02:01:30;14.00;99.90
831;DHT22;397;50.564;7.272;2023-05-29T02:03:58;13.80;99.90
831;DHT22;397;50.564;7.272;2023-05-29T02:06:25;13.80;99.90
831;DHT22;397;50.564;7.272;2023-05-29T02:08:53;13.70;99.90
831;DHT22;397;50.564;7.272;2023-05-29T02:11:20;13.60;99.90
831;DHT22;397;50.564;7.272;2023-05-29T02:13:48;13.60;99.90
831;DHT22;397;50.564;7.272;2023-05-29T02:16:15;13.60;99.90
831;DHT22;397;50.564;7.272;2023-05-29T02:18:43;13.70;99.90
831;DHT22;397;50.564;7.272;2023-05-29T02:21:11;13.60;99.90
831;DHT22;397;50.564;7.272;2023-05-29T02:23:38;13.70;99.90
831;DHT22;397;50.564;7.272;2023-05-29T02:26:06;13.50;99.90
831;DHT22;397;50.564;7.272;2023-05-29T02:28:34;13.40;99.90
831;DHT22;397;50.564;7.272;2023-05-29T02:31:02;13.40;99.90
831;DHT22;397;50.564;7.272;2023-05-29T02:33:30;13.40;99.90
831;DHT22;397;50.564;7.272;2023-05-29T02:35:57;13.60;99.90
831;DHT22;397;50.564;7.272;2023-05-29T02:38:25;13.50;99.90
831;DHT22;397;50.564;7.272;2023-05-29T02:40:52;13.40;99.90
831;DHT22;397;50.564;7.272;2023-05-29T02:43:22;13.30;99.90
831;DHT22;397;50.564;7.272;2023-05-29T02:45:49;13.40;99.90
831;DHT22;397;50.564;7.272;2023-05-29T02:48:17;13.40;99.90
831;DHT22;397;50.564;7.272;2023-05-29T02:50:44;13.40;99.90
831;DHT22;397;50.564;7.272;2023-05-29T02:53:12;13.50;99.90
831;DHT22;397;50.564;7.272;2023-05-29T02:55:39;13.40;99.90
831;DHT22;397;50.564;7.272;2023-05-29T02:58:07;13.30;99.90
831;DHT22;397;50.564;7.272;2023-05-29T03:00:34;13.30;99.90
831;DHT22;397;50.564;7.272;2023-05-29T03:03:02;13.40;99.90
831;DHT22;397;50.564;7.272;2023-05-29T03:05:30;13.50;99.90
831;DHT22;397;50.564;7.272;2023-05-29T03:07:58;13.50;99.90
831;DHT22;397;50.564;7.272;2023-05-29T03:10:25;13.40;99.90
831;DHT22;397;50.564;7.272;2023-05-29T03:12:53;13.10;99.90
831;DHT22;397;50.564;7.272;2023-05-29T03:15:21;13.20;99.90
831;DHT22;397;50.564;7.272;2023-05-29T03:17:49;13.20;99.90
831;DHT22;397;50.564;7.272;2023-05-29T03:20:16;13.10;99.90
831;DHT22;397;50.564;7.272;2023-05-29T03:22:44;13.20;99.90
831;DHT22;397;50.564;7.272;2023-05-29T03:25:12;13.20;99.90
831;DHT22;397;50.564;7.272;2023-05-29T03:27:39;13.20;99.90
831;DHT22;397;50.564;7.272;2023-05-29T03:30:07;13.30;99.90
831;DHT22;397;50.564;7.272;2023-05-29T03:32:36;13.40;99.90
831;DHT22;397;50.564;7.272;2023-05-29T03:35:03;13.60;99.90
831;DHT22;397;50.564;7.272;2023-05-29T03:37:31;13.70;99.90
831;DHT22;397;50.564;7.272;2023-05-29T03:39:58;13.60;99.90
831;DHT22;397;50.564;7.272;2023-05-29T03:42:26;13.60;99.90
831;DHT22;397;50.564;7.272;2023-05-29T03:44:53;13.70;99.90
831;DHT22;397;50.564;7.272;2023-05-29T03:47:21;13.80;99.90
831;DHT22;397;50.564;7.272;2023-05-29T03:49:48;13.90;99.90
831;DHT22;397;50.564;7.272;2023-05-29T03:52:16;13.80;99.90
831;DHT22;397;50.564;7.272;2023-05-29T03:54:44;13.80;99.90
831;DHT22;397;50.564;7.272;2023-05-29T03:57:11;13.90;99.90
831;DHT22;397;50.564;7.272;2023-05-29T03:59:39;14.10;99.90
831;DHT22;397;50.564;7.272;2023-05-29T04:02:06;14.20;99.90
831;DHT22;397;50.564;7.272;2023-05-29T04:04:34;14.20;99.90
831;DHT22;397;50.564;7.272;2023-05-29T04:07:01;14.30;99.90
831;DHT22;397;50.564;7.272;2023-05-29T04:09:29;14.60;99.90
831;DHT22;397;50.564;7.272;2023-05-29T04:11:56;15.20;99.90
831;DHT22;397;50.564;7.272;2023-05-29T04:14:24;15.80;99.90
831;DHT22;397;50.564;7.272;2023-05-29T04:16:51;16.20;99.90
831;DHT22;397;50.564;7.272;2023-05-29T04:19:19;16.70;99.90
831;DHT22;397;50.564;7.272;2023-05-29T04:21:47;17.40;99.90
831;DHT22;397;50.564;7.272;2023-05-29T04:24:16;17.70;99.90
831;DHT22;397;50.564;7.272;2023-05-29T04:26:43;18.30;99.90
831;DHT22;397;50.564;7.272;2023-05-29T04:29:12;18.90;99.90
831;DHT22;397;50.564;7.272;2023-05-29T04:31:40;19.30;99.90
831;DHT22;397;50.564;7.272;2023-05-29T04:34:07;19.50;99.90
831;DHT22;397;50.564;7.272;2023-05-29T04:36:35;20.00;99.90
831;DHT22;397;50.564;7.272;2023-05-29T04:39:05;20.10;99.90
831;DHT22;397;50.564;7.272;2023-05-29T04:41:33;20.30;99.90
831;DHT22;397;50.564;7.272;2023-05-29T04:44:01;20.60;99.90
831;DHT22;397;50.564;7.272;2023-05-29T04:46:30;20.50;99.90
831;DHT22;397;50.564;7.272;2023-05-29T04:48:57;21.10;99.90
831;DHT22;397;50.564;7.272;2023-05-29T04:51:25;21.30;99.90
831;DHT22;397;50.564;7.272;2023-05-29T04:53:54;21.80;99.90
831;DHT22;397;50.564;7.272;2023-05-29T04:56:22;22.00;99.90
831;DHT22;397;50.564;7.272;2023-05-29T04:58:49;22.30;99.90
831;DHT22;397;50.564;7.272;2023-05-29T05:01:17;22.50;99.90
831;DHT22;397;50.564;7.272;2023-05-29T05:03:44;22.60;99.90
831;DHT22;397;50.564;7.272;2023-05-29T05:06:12;22.90;99.90
831;DHT22;397;50.564;7.272;2023-05-29T05:08:39;23.20;99.90
831;DHT22;397;50.564;7.272;2023-05-29T05:11:07;23.00;99.90
831;DHT22;397;50.564;7.272;2023-05-29T05:13:34;23.20;99.90
831;DHT22;397;50.564;7.272;2023-05-29T05:16:02;23.70;99.90
831;DHT22;397;50.564;7.272;2023-05-29T05:18:29;24.60;99.90
831;DHT22;397;50.564;7.272;2023-05-29T05:20:57;25.10;99.90
831;DHT22;397;50.564;7.272;2023-05-29T05:23:25;24.90;98.10
831;DHT22;397;50.564;7.272;2023-05-29T05:25:52;24.80;95.60
831;DHT22;397;50.564;7.272;2023-05-29T05:28:20;24.90;96.10
831;DHT22;397;50.564;7.272;2023-05-29T05:30:47;25.60;94.80
831;DHT22;397;50.564;7.272;2023-05-29T05:33:15;26.00;93.60
831;DHT22;397;50.564;7.272;2023-05-29T05:35:42;26.30;91.70
831;DHT22;397;50.564;7.272;2023-05-29T05:38:10;26.40;90.40
831;DHT22;397;50.564;7.272;2023-05-29T05:40:37;26.60;85.60
831;DHT22;397;50.564;7.272;2023-05-29T05:43:05;26.80;84.30
831;DHT22;397;50.564;7.272;2023-05-29T05:45:33;27.10;83.70
831;DHT22;397;50.564;7.272;2023-05-29T05:48:01;27.30;81.70
831;DHT22;397;50.564;7.272;2023-05-29T05:50:29;27.80;78.00
831;DHT22;397;50.564;7.272;2023-05-29T05:52:56;27.80;75.70
831;DHT22;397;50.564;7.272;2023-05-29T05:55:24;28.10;73.40
831;DHT22;397;50.564;7.272;2023-05-29T05:57:54;27.60;73.30
831;DHT22;397;50.564;7.272;2023-05-29T06:00:23;26.80;71.40
831;DHT22;397;50.564;7.272;2023-05-29T06:02:50;27.00;73.90
831;DHT22;397;50.564;7.272;2023-05-29T06:05:18;27.10;73.90
831;DHT22;397;50.564;7.272;2023-05-29T06:07:46;27.40;71.70
831;DHT22;397;50.564;7.272;2023-05-29T06:10:13;27.60;70.30
831;DHT22;397;50.564;7.272;2023-05-29T06:12:41;27.40;72.10
831;DHT22;397;50.564;7.272;2023-05-29T06:15:09;27.30;70.00
831;DHT22;397;50.564;7.272;2023-05-29T06:17:36;27.70;71.80
831;DHT22;397;50.564;7.272;2023-05-29T06:20:04;27.60;70.50
831;DHT22;397;50.564;7.272;2023-05-29T06:22:33;27.50;69.30
831;DHT22;397;50.564;7.272;2023-05-29T06:25:01;26.50;69.50
831;DHT22;397;50.564;7.272;2023-05-29T06:27:28;26.20;72.20
831;DHT22;397;50.564;7.272;2023-05-29T06:29:56;26.40;72.30
831;DHT22;397;50.564;7.272;2023-05-29T06:32:24;26.30;69.60
831;DHT22;397;50.564;7.272;2023-05-29T06:34:51;26.00;72.40
831;DHT22;397;50.564;7.272;2023-05-29T06:37:19;26.30;71.00
831;DHT22;397;50.564;7.272;2023-05-29T06:39:46;26.10;70.50
831;DHT22;397;50.564;7.272;2023-05-29T06:42:13;26.00;70.50
831;DHT22;397;50.564;7.272;2023-05-29T06:44:41;25.70;72.10
831;DHT22;397;50.564;7.272;2023-05-29T06:47:09;25.60;71.10
831;DHT22;397;50.564;7.272;2023-05-29T06:49:36;25.40;72.30
831;DHT22;397;50.564;7.272;2023-05-29T06:52:04;25.30;71.50
831;DHT22;397;50.564;7.272;2023-05-29T06:54:31;24.90;72.60
831;DHT22;397;50.564;7.272;2023-05-29T06:56:59;24.70;73.60
831;DHT22;397;50.564;7.272;2023-05-29T06:59:26;24.70;74.30
831;DHT22;397;50.564;7.272;2023-05-29T07:01:54;23.30;76.50
831;DHT22;397;50.564;7.272;2023-05-29T07:04:22;22.10;82.30
831;DHT22;397;50.564;7.272;2023-05-29T07:06:49;22.10;83.60
831;DHT22;397;50.564;7.272;2023-05-29T07:09:17;21.40;85.60
831;DHT22;397;50.564;7.272;2023-05-29T07:11:45;21.90;89.00
831;DHT22;397;50.564;7.272;2023-05-29T07:14:12;22.50;89.40
831;DHT22;397;50.564;7.272;2023-05-29T07:16:40;22.60;89.20
831;DHT22;397;50.564;7.272;2023-05-29T07:19:08;22.60;88.20
831;DHT22;397;50.564;7.272;2023-05-29T07:21:37;22.40;88.80
831;DHT22;397;50.564;7.272;2023-05-29T07:24:05;22.50;89.80
831;DHT22;397;50.564;7.272;2023-05-29T07:26:32;22.60;90.10
831;DHT22;397;50.564;7.272;2023-05-29T07:29:00;21.90;90.00
831;DHT22;397;50.564;7.272;2023-05-29T07:31:28;21.30;91.60
831;DHT22;397;50.564;7.272;2023-05-29T07:33:56;21.00;94.40
831;DHT22;397;50.564;7.272;2023-05-29T07:36:28;21.30;94.80
831;DHT22;397;50.564;7.272;2023-05-29T07:38:52;21.60;95.20
831;DHT22;397;50.564;7.272;2023-05-29T07:41:20;21.50;95.30
831;DHT22;397;50.564;7.272;2023-05-29T07:43:47;21.80;95.50
831;DHT22;397;50.564;7.272;2023-05-29T07:46:16;21.90;95.40
831;DHT22;397;50.564;7.272;2023-05-29T07:48:44;21.90;95.10
831;DHT22;397;50.564;7.272;2023-05-29T07:51:12;21.20;96.10
831;DHT22;397;50.564;7.272;2023-05-29T07:53:40;20.10;99.40
831;DHT22;397;50.564;7.272;2023-05-29T07:56:07;20.60;99.90
831;DHT22;397;50.564;7.272;2023-05-29T07:58:35;21.20;99.90
831;DHT22;397;50.564;7.272;2023-05-29T08:01:02;21.50;99.40
831;DHT22;397;50.564;7.272;2023-05-29T08:03:31;21.20;99.30
831;DHT22;397;50.564;7.272;2023-05-29T08:05:59;20.60;99.90
831;DHT22;397;50.564;7.272;2023-05-29T08:08:26;21.00;99.90
831;DHT22;397;50.564;7.272;2023-05-29T08:10:54;20.50;99.90
831;DHT22;397;50.564;7.272;2023-05-29T08:13:21;20.40;99.90
831;DHT22;397;50.564;7.272;2023-05-29T08:15:49;19.90;99.90
831;DHT22;397;50.564;7.272;2023-05-29T08:18:16;20.10;99.90
831;DHT22;397;50.564;7.272;2023-05-29T08:20:44;19.20;99.90
831;DHT22;397;50.564;7.272;2023-05-29T08:23:11;19.10;99.90
831;DHT22;397;50.564;7.272;2023-05-29T08:25:39;19.10;99.90
831;DHT22;397;50.564;7.272;2023-05-29T08:28:06;19.30;99.90
831;DHT22;397;50.564;7.272;2023-05-29T08:30:34;19.60;99.90
831;DHT22;397;50.564;7.272;2023-05-29T08:33:01;20.00;99.90
831;DHT22;397;50.564;7.272;2023-05-29T08:35:29;20.70;99.90
831;DHT22;397;50.564;7.272;2023-05-29T08:37:57;21.10;99.90
831;DHT22;397;50.564;7.272;2023-05-29T08:40:24;19.90;99.90
831;DHT22;397;50.564;7.272;2023-05-29T08:42:56;20.20;99.90
831;DHT22;397;50.564;7.272;2023-05-29T08:45:25;19.60;99.90
831;DHT22;397;50.564;7.272;2023-05-29T08:47:54;20.30;99.90
831;DHT22;397;50.564;7.272;2023-05-29T08:50:22;21.00;99.90
831;DHT22;397;50.564;7.272;2023-05-29T08:52:50;21.40;99.90
831;DHT22;397;50.564;7.272;2023-05-29T08:55:18;21.40;99.90
831;DHT22;397;50.564;7.272;2023-05-29T08:57:45;21.60;99.90
831;DHT22;397;50.564;7.272;2023-05-29T09:00:13;21.80;99.90
831;DHT22;397;50.564;7.272;2023-05-29T09:02:44;22.00;99.90
831;DHT22;397;50.564;7.272;2023-05-29T09:05:13;21.70;99.90
831;DHT22;397;50.564;7.272;2023-05-29T09:07:41;21.80;99.90
831;DHT22;397;50.564;7.272;2023-05-29T09:10:10;21.60;99.90
831;DHT22;397;50.564;7.272;2023-05-29T09:12:38;21.90;99.90
831;DHT22;397;50.564;7.272;2023-05-29T09:15:17;22.20;99.90
831;DHT22;397;50.564;7.272;2023-05-29T09:17:52;22.30;99.90
831;DHT22;397;50.564;7.272;2023-05-29T09:20:21;22.10;99.90
831;DHT22;397;50.564;7.272;2023-05-29T09:22:59;22.10;99.90
831;DHT22;397;50.564;7.272;2023-05-29T09:25:30;22.20;99.90
831;DHT22;397;50.564;7.272;2023-05-29T09:27:59;22.40;99.90
831;DHT22;397;50.564;7.272;2023-05-29T09:30:44;22.60;99.90
831;DHT22;397;50.564;7.272;2023-05-29T09:33:14;22.60;99.90
831;DHT22;397;50.564;7.272;2023-05-29T09:35:43;22.60;99.90
831;DHT22;397;50.564;7.272;2023-05-29T09:38:13;22.40;99.90
831;DHT22;397;50.564;7.272;2023-05-29T09:40:40;22.20;99.90
831;DHT22;397;50.564;7.272;2023-05-29T09:43:16;22.40;99.90
831;DHT22;397;50.564;7.272;2023-05-29T09:45:48;22.50;99.90
831;DHT22;397;50.564;7.272;2023-05-29T09:48:17;22.40;99.90
831;DHT22;397;50.564;7.272;2023-05-29T09:50:46;22.70;99.90
831;DHT22;397;50.564;7.272;2023-05-29T09:53:21;22.80;99.90
831;DHT22;397;50.564;7.272;2023-05-29T09:55:51;22.70;99.90
831;DHT22;397;50.564;7.272;2023-05-29T09:58:24;22.70;99.90
831;DHT22;397;50.564;7.272;2023-05-29T10:00:49;22.50;99.90
831;DHT22;397;50.564;7.272;2023-05-29T10:03:17;22.40;99.90
831;DHT22;397;50.564;7.272;2023-05-29T10:05:52;22.60;99.90
831;DHT22;397;50.564;7.272;2023-05-29T10:08:21;22.60;99.90
831;DHT22;397;50.564;7.272;2023-05-29T10:10:59;21.80;99.90
831;DHT22;397;50.564;7.272;2023-05-29T10:13:38;22.00;99.90
831;DHT22;397;50.564;7.272;2023-05-29T10:16:04;22.10;99.90
831;DHT22;397;50.564;7.272;2023-05-29T10:18:37;22.30;99.90
831;DHT22;397;50.564;7.272;2023-05-29T10:21:07;22.30;99.90
831;DHT22;397;50.564;7.272;2023-05-29T10:23:36;21.60;99.90
831;DHT22;397;50.564;7.272;2023-05-29T10:26:15;21.70;99.90
831;DHT22;397;50.564;7.272;2023-05-29T10:28:53;22.10;99.90
831;DHT22;397;50.564;7.272;2023-05-29T10:31:22;22.50;99.90
831;DHT22;397;50.564;7.272;2023-05-29T10:36:47;22.80;99.90
831;DHT22;397;50.564;7.272;2023-05-29T10:39:15;22.80;99.90
831;DHT22;397;50.564;7.272;2023-05-29T10:41:42;22.90;99.90
831;DHT22;397;50.564;7.272;2023-05-29T10:44:37;22.90;99.90
831;DHT22;397;50.564;7.272;2023-05-29T10:49:29;23.10;99.90
831;DHT22;397;50.564;7.272;2023-05-29T10:51:58;23.20;99.90
831;DHT22;397;50.564;7.272;2023-05-29T10:54:27;23.30;99.90
831;DHT22;397;50.564;7.272;2023-05-29T10:56:58;23.20;99.90
831;DHT22;397;50.564;7.272;2023-05-29T10:59:27;23.40;99.90
831;DHT22;397;50.564;7.272;2023-05-29T11:01:55;23.50;99.90
831;DHT22;397;50.564;7.272;2023-05-29T11:04:26;23.50;99.90
831;DHT22;397;50.564;7.272;2023-05-29T11:06:54;23.40;99.20
831;DHT22;397;50.564;7.272;2023-05-29T11:09:35;23.30;99.90
831;DHT22;397;50.564;7.272;2023-05-29T11:12:13;23.60;99.90
831;DHT22;397;50.564;7.272;2023-05-29T11:15:03;23.60;98.70
831;DHT22;397;50.564;7.272;2023-05-29T11:17:30;23.70;99.40
831;DHT22;397;50.564;7.272;2023-05-29T11:20:03;23.60;99.40
831;DHT22;397;50.564;7.272;2023-05-29T11:25:09;23.70;99.90
831;DHT22;397;50.564;7.272;2023-05-29T11:27:37;23.60;97.40
831;DHT22;397;50.564;7.272;2023-05-29T11:30:06;23.60;99.00
831;DHT22;397;50.564;7.272;2023-05-29T11:32:34;23.60;98.80
831;DHT22;397;50.564;7.272;2023-05-29T11:35:07;23.60;98.70
831;DHT22;397;50.564;7.272;2023-05-29T11:37:38;23.60;97.80
831;DHT22;397;50.564;7.272;2023-05-29T11:40:05;23.50;97.30
831;DHT22;397;50.564;7.272;2023-05-29T11:42:34;23.60;99.40
831;DHT22;397;50.564;7.272;2023-05-29T11:45:17;23.70;98.50
831;DHT22;397;50.564;7.272;2023-05-29T11:47:58;23.60;98.90
831;DHT22;397;50.564;7.272;2023-05-29T11:50:28;23.50;98.60
831;DHT22;397;50.564;7.272;2023-05-29T11:52:58;23.60;99.20
831;DHT22;397;50.564;7.272;2023-05-29T11:55:27;23.80;98.70
831;DHT22;397;50.564;7.272;2023-05-29T11:58:02;23.70;98.40
831;DHT22;397;50.564;7.272;2023-05-29T12:00:36;23.50;98.50
831;DHT22;397;50.564;7.272;2023-05-29T12:03:05;23.60;98.50
831;DHT22;397;50.564;7.272;2023-05-29T12:05:47;23.60;99.50
831;DHT22;397;50.564;7.272;2023-05-29T12:08:24;23.70;99.30
831;DHT22;397;50.564;7.272;2023-05-29T12:10:52;23.90;99.40
831;DHT22;397;50.564;7.272;2023-05-29T12:13:20;23.90;98.70
831;DHT22;397;50.564;7.272;2023-05-29T12:15:52;24.00;97.80
831;DHT22;397;50.564;7.272;2023-05-29T12:18:20;23.90;97.30
831;DHT22;397;50.564;7.272;2023-05-29T12:20:48;23.80;97.30
831;DHT22;397;50.564;7.272;2023-05-29T12:23:17;23.80;98.10
831;DHT22;397;50.564;7.272;2023-05-29T12:25:47;23.90;97.90
831;DHT22;397;50.564;7.272;2023-05-29T12:28:17;23.80;98.00
831;DHT22;397;50.564;7.272;2023-05-29T12:30:45;23.80;98.30
831;DHT22;397;50.564;7.272;2023-05-29T12:33:32;23.90;97.80
831;DHT22;397;50.564;7.272;2023-05-29T12:36:12;23.80;96.40
831;DHT22;397;50.564;7.272;2023-05-29T12:38:50;23.70;97.30
831;DHT22;397;50.564;7.272;2023-05-29T12:41:25;23.80;97.70
831;DHT22;397;50.564;7.272;2023-05-29T12:43:54;24.00;98.80
831;DHT22;397;50.564;7.272;2023-05-29T12:46:23;24.10;97.80
831;DHT22;397;50.564;7.272;2023-05-29T12:48:52;24.00;96.50
831;DHT22;397;50.564;7.272;2023-05-29T12:51:26;24.10;97.60
831;DHT22;397;50.564;7.272;2023-05-29T12:53:54;24.10;97.50
831;DHT22;397;50.564;7.272;2023-05-29T12:56:24;24.20;97.50
831;DHT22;397;50.564;7.272;2023-05-29T12:58:52;24.30;97.10
831;DHT22;397;50.564;7.272;2023-05-29T13:01:20;24.20;95.80
831;DHT22;397;50.564;7.272;2023-05-29T13:03:48;24.20;96.70
831;DHT22;397;50.564;7.272;2023-05-29T13:06:16;24.10;96.60
831;DHT22;397;50.564;7.272;2023-05-29T13:08:43;24.10;97.60
831;DHT22;397;50.564;7.272;2023-05-29T13:11:11;24.30;98.20
831;DHT22;397;50.564;7.272;2023-05-29T13:13:38;24.30;97.10
831;DHT22;397;50.564;7.272;2023-05-29T13:16:06;24.10;96.20
831;DHT22;397;50.564;7.272;2023-05-29T13:18:34;24.20;97.50
831;DHT22;397;50.564;7.272;2023-05-29T13:21:01;24.30;97.40
831;DHT22;397;50.564;7.272;2023-05-29T13:23:29;24.30;97.80
831;DHT22;397;50.564;7.272;2023-05-29T13:25:56;24.10;96.90
831;DHT22;397;50.564;7.272;2023-05-29T13:28:24;24.10;98.40
831;DHT22;397;50.564;7.272;2023-05-29T13:30:51;24.10;98.90
831;DHT22;397;50.564;7.272;2023-05-29T13:33:19;23.90;99.00
831;DHT22;397;50.564;7.272;2023-05-29T13:35:46;23.90;97.10
831;DHT22;397;50.564;7.272;2023-05-29T13:38:14;23.70;97.30
831;DHT22;397;50.564;7.272;2023-05-29T13:40:41;23.80;99.10
831;DHT22;397;50.564;7.272;2023-05-29T13:43:09;24.00;99.00
831;DHT22;397;50.564;7.272;2023-05-29T13:45:36;24.10;98.10
831;DHT22;397;50.564;7.272;2023-05-29T13:48:04;23.90;97.10
831;DHT22;397;50.564;7.272;2023-05-29T13:50:32;23.90;97.00
831;DHT22;397;50.564;7.272;2023-05-29T13:52:59;23.90;97.50
831;DHT22;397;50.564;7.272;2023-05-29T13:55:27;24.00;97.90
831;DHT22;397;50.564;7.272;2023-05-29T13:57:54;24.10;97.20
831;DHT22;397;50.564;7.272;2023-05-29T14:00:24;24.00;97.70
831;DHT22;397;50.564;7.272;2023-05-29T14:02:51;23.90;97.00
831;DHT22;397;50.564;7.272;2023-05-29T14:05:19;23.80;97.60
831;DHT22;397;50.564;7.272;2023-05-29T14:07:46;23.60;98.80
831;DHT22;397;50.564;7.272;2023-05-29T14:10:14;23.70;96.50
831;DHT22;397;50.564;7.272;2023-05-29T14:12:42;23.70;98.80
831;DHT22;397;50.564;7.272;2023-05-29T14:15:10;23.60;99.20
831;DHT22;397;50.564;7.272;2023-05-29T14:17:38;23.80;99.30
831;DHT22;397;50.564;7.272;2023-05-29T14:20:05;24.00;97.40
831;DHT22;397;50.564;7.272;2023-05-29T14:22:35;24.10;97.60
831;DHT22;397;50.564;7.272;2023-05-29T14:25:04;23.50;97.10
831;DHT22;397;50.564;7.272;2023-05-29T14:27:31;23.30;97.20
831;DHT22;397;50.564;7.272;2023-05-29T14:29:59;23.40;98.10
831;DHT22;397;50.564;7.272;2023-05-29T14:32:26;23.50;97.90
831;DHT22;397;50.564;7.272;2023-05-29T14:34:54;23.60;98.00
831;DHT22;397;50.564;7.272;2023-05-29T14:37:23;23.80;98.30
831;DHT22;397;50.564;7.272;2023-05-29T14:39:50;23.30;96.60
831;DHT22;397;50.564;7.272;2023-05-29T14:42:18;23.20;97.40
831;DHT22;397;50.564;7.272;2023-05-29T14:44:45;23.30;99.00
831;DHT22;397;50.564;7.272;2023-05-29T14:47:13;23.20;97.00
831;DHT22;397;50.564;7.272;2023-05-29T14:49:40;23.30;98.20
831;DHT22;397;50.564;7.272;2023-05-29T14:52:08;23.40;98.60
831;DHT22;397;50.564;7.272;2023-05-29T14:54:35;23.30;97.60
831;DHT22;397;50.564;7.272;2023-05-29T14:57:03;23.30;98.50
831;DHT22;397;50.564;7.272;2023-05-29T14:59:30;23.50;98.50
831;DHT22;397;50.564;7.272;2023-05-29T15:01:58;23.30;97.20
831;DHT22;397;50.564;7.272;2023-05-29T15:04:26;22.90;97.30
831;DHT22;397;50.564;7.272;2023-05-29T15:06:54;22.90;99.20
831;DHT22;397;50.564;7.272;2023-05-29T15:09:22;22.80;96.60
831;DHT22;397;50.564;7.272;2023-05-29T15:11:49;22.70;97.90
831;DHT22;397;50.564;7.272;2023-05-29T15:14:17;22.90;98.30
831;DHT22;397;50.564;7.272;2023-05-29T15:16:45;22.90;97.80
831;DHT22;397;50.564;7.272;2023-05-29T15:19:12;23.00;97.30
831;DHT22;397;50.564;7.272;2023-05-29T15:21:40;23.00;97.80
831;DHT22;397;50.564;7.272;2023-05-29T15:24:08;22.90;97.80
831;DHT22;397;50.564;7.272;2023-05-29T15:26:35;22.80;97.30
831;DHT22;397;50.564;7.272;2023-05-29T15:29:03;22.70;97.40
831;DHT22;397;50.564;7.272;2023-05-29T15:31:31;22.50;99.20
831;DHT22;397;50.564;7.272;2023-05-29T15:33:58;22.60;99.60
831;DHT22;397;50.564;7.272;2023-05-29T15:36:26;22.70;97.80
831;DHT22;397;50.564;7.272;2023-05-29T15:38:55;22.60;98.40
831;DHT22;397;50.564;7.272;2023-05-29T15:41:23;22.70;98.80
831;DHT22;397;50.564;7.272;2023-05-29T15:43:55;22.80;98.60
831;DHT22;397;50.564;7.272;2023-05-29T15:46:27;22.90;97.60
831;DHT22;397;50.564;7.272;2023-05-29T15:48:55;22.90;97.80
831;DHT22;397;50.564;7.272;2023-05-29T15:51:23;22.80;97.50
831;DHT22;397;50.564;7.272;2023-05-29T15:53:50;22.80;97.40
831;DHT22;397;50.564;7.272;2023-05-29T15:56:18;22.70;97.40
831;DHT22;397;50.564;7.272;2023-05-29T15:58:45;22.70;97.30
831;DHT22;397;50.564;7.272;2023-05-29T16:01:13;22.60;97.40
831;DHT22;397;50.564;7.272;2023-05-29T16:03:40;22.40;98.30
831;DHT22;397;50.564;7.272;2023-05-29T16:06:08;22.40;98.30
831;DHT22;397;50.564;7.272;2023-05-29T16:08:36;22.50;97.90
831;DHT22;397;50.564;7.272;2023-05-29T16:11:03;22.50;97.60
831;DHT22;397;50.564;7.272;2023-05-29T16:13:31;22.50;96.90
831;DHT22;397;50.564;7.272;2023-05-29T16:15:59;22.40;98.20
831;DHT22;397;50.564;7.272;2023-05-29T16:18:28;22.40;97.70
831;DHT22;397;50.564;7.272;2023-05-29T16:20:56;22.30;97.00
831;DHT22;397;50.564;7.272;2023-05-29T16:23:23;22.30;98.00
831;DHT22;397;50.564;7.272;2023-05-29T16:25:52;22.30;97.40
831;DHT22;397;50.564;7.272;2023-05-29T16:28:19;22.30;97.90
831;DHT22;397;50.564;7.272;2023-05-29T16:30:47;22.30;98.10
831;DHT22;397;50.564;7.272;2023-05-29T16:33:14;22.20;96.70
831;DHT22;397;50.564;7.272;2023-05-29T16:35:42;22.10;96.80
831;DHT22;397;50.564;7.272;2023-05-29T16:38:09;22.10;97.70
831;DHT22;397;50.564;7.272;2023-05-29T16:40:38;22.10;97.20
831;DHT22;397;50.564;7.272;2023-05-29T16:43:05;22.10;97.00
831;DHT22;397;50.564;7.272;2023-05-29T16:45:34;21.90;96.20
831;DHT22;397;50.564;7.272;2023-05-29T16:48:02;21.80;98.20
831;DHT22;397;50.564;7.272;2023-05-29T16:50:29;21.80;98.70
831;DHT22;397;50.564;7.272;2023-05-29T16:52:57;21.80;99.10
831;DHT22;397;50.564;7.272;2023-05-29T16:55:25;21.90;98.80